Time;durP1;ratioP1;P1;durP2;ratioP2;P2;SDS_P1;SDS_P2;PMS_P1;PMS_P2;Temp;Humidity;BMP_temperature;BMP_pressure;BME280_temperature;BME280_humidity;BME280_pressure;Samples;Min_cycle;Max_cycle;Signal;HPM_P1;HPM_P2
2021/10/13 00:00:37;;;;;;;5.28;2.10;;;;;;;11.12;59.23;102229.34;4969125;28;119855;-65
2021/10/13 00:03:04;;;;;;;6.03;2.40;;;;;;;11.13;59.32;102236.38;4966664;28;124300;-65
2021/10/13 00:05:32;;;;;;;8.07;2.25;;;;;;;11.10;59.46;102238.22;4966962;28;123954;-66
2021/10/13 00:07:59;;;;;;;5.90;2.05;;;;;;;11.13;59.44;102241.69;4966294;28;120743;-65
2021/10/13 00:10:26;;;;;;;4.25;2.10;;;;;;;11.11;59.45;102239.06;4967289;28;120248;-65
2021/10/13 00:12:53;;;;;;;6.57;2.20;;;;;;;11.10;59.28;102232.03;4967977;28;124807;-64
2021/10/13 00:15:20;;;;;;;6.65;2.58;;;;;;;11.09;59.37;102231.19;4968436;28;124697;-64
2021/10/13 00:17:47;;;;;;;4.65;2.20;;;;;;;11.08;59.31;102213.50;4968868;28;120618;-64
2021/10/13 00:20:14;;;;;;;4.38;1.85;;;;;;;11.07;59.31;102211.75;4966220;28;119608;-64
2021/10/13 00:22:41;;;;;;;3.78;2.40;;;;;;;11.06;59.37;102220.63;4967128;28;124108;-64
2021/10/13 00:25:10;;;;;;;3.47;2.40;;;;;;;11.05;59.49;102229.47;4967439;28;124228;-65
2021/10/13 00:27:37;;;;;;;5.13;2.20;;;;;;;11.05;59.39;102229.47;4968437;28;119790;-64
2021/10/13 00:30:04;;;;;;;8.20;2.70;;;;;;;11.04;59.78;102233.06;4951045;28;118209;-64
2021/10/13 00:32:32;;;;;;;6.32;2.22;;;;;;;11.02;59.42;102240.19;4965893;28;124047;-64
2021/10/13 00:34:59;;;;;;;8.95;3.13;;;;;;;11.02;59.43;102241.94;4966541;28;124110;-64
2021/10/13 00:37:26;;;;;;;5.97;2.42;;;;;;;11.00;59.68;102242.00;4966585;28;119396;-64
2021/10/13 00:39:53;;;;;;;4.15;2.33;;;;;;;11.00;59.55;102244.66;4965685;28;119128;-64
2021/10/13 00:42:20;;;;;;;6.18;2.65;;;;;;;11.01;59.59;102246.38;4968272;28;125343;-64
2021/10/13 00:44:48;;;;;;;4.55;2.30;;;;;;;11.01;59.68;102242.88;4965994;28;124520;-64
2021/10/13 00:47:15;;;;;;;5.03;2.47;;;;;;;11.01;59.96;102238.44;4968983;28;119054;-64
2021/10/13 00:49:42;;;;;;;7.05;2.53;;;;;;;11.02;60.14;102234.88;4964818;28;119771;-64
2021/10/13 00:52:09;;;;;;;5.97;2.13;;;;;;;11.06;60.29;102236.53;4966881;28;124736;-64
2021/10/13 00:54:36;;;;;;;4.38;2.20;;;;;;;11.12;60.51;102229.34;4968929;28;124628;-63
2021/10/13 00:57:04;;;;;;;4.88;2.20;;;;;;;11.16;60.62;102220.41;4968370;28;120420;-63
2021/10/13 00:59:31;;;;;;;5.35;1.88;;;;;;;11.20;60.55;102216.75;4968259;28;120488;-64
2021/10/13 01:02:04;;;;;;;4.28;2.17;;;;;;;11.26;60.52;102222.78;4969271;28;125324;-64
2021/10/13 01:04:49;;;;;;;4.50;2.15;;;;;;;11.30;60.40;102228.84;4964857;28;124110;-64
2021/10/13 01:07:38;;;;;;;5.03;2.20;;;;;;;11.32;60.37;102232.38;4971767;28;120110;-64
2021/10/13 01:10:15;;;;;;;6.22;2.15;;;;;;;11.32;60.47;102235.03;4956130;28;117768;-64
2021/10/13 01:13:12;;;;;;;4.57;2.33;;;;;;;11.32;60.39;102237.69;4968062;28;124555;-64
2021/10/13 01:15:59;;;;;;;6.53;2.40;;;;;;;11.33;60.36;102250.00;4967114;28;124166;-64
2021/10/13 01:18:49;;;;;;;6.18;2.40;;;;;;;11.33;60.51;102247.34;4968274;28;119395;-63
2021/10/13 01:21:41;;;;;;;6.93;2.70;;;;;;;11.32;60.34;102248.28;4973201;28;118802;-64
2021/10/13 01:24:21;;;;;;;6.20;2.40;;;;;;;11.29;60.19;102243.06;4965122;28;124161;-64
2021/10/13 01:27:00;;;;;;;6.45;2.67;;;;;;;11.28;60.29;102236.00;4970094;28;124719;-64
2021/10/13 01:29:30;;;;;;;8.10;2.70;;;;;;;11.28;60.39;102239.53;4971400;28;119461;-64
2021/10/13 01:32:06;;;;;;;6.10;2.53;;;;;;;11.28;60.43;102241.28;4969237;28;119047;-64
2021/10/13 01:34:39;;;;;;;7.22;2.22;;;;;;;11.28;60.39;102241.28;4969978;28;125063;-64
2021/10/13 01:37:19;;;;;;;6.85;2.88;;;;;;;11.29;60.26;102248.34;4954457;28;123066;-64
2021/10/13 01:39:51;;;;;;;5.13;2.33;;;;;;;11.29;60.29;102248.34;4968273;28;119595;-64
2021/10/13 01:42:20;;;;;;;7.90;2.60;;;;;;;11.27;60.14;102239.56;4955211;28;117010;-64
2021/10/13 01:44:57;;;;;;;5.57;2.88;;;;;;;11.24;60.12;102244.94;4961010;28;123379;-64
2021/10/13 01:47:25;;;;;;;6.63;2.58;;;;;;;11.23;60.43;102253.81;4974191;28;124533;-64
2021/10/13 01:49:57;;;;;;;4.43;2.25;;;;;;;11.23;60.29;102248.53;4967929;28;120565;-64
2021/10/13 01:52:26;;;;;;;5.80;2.47;;;;;;;11.24;60.47;102250.25;4969310;28;120976;-64
2021/10/13 01:54:57;;;;;;;5.10;2.50;;;;;;;11.22;60.46;102252.94;4967459;28;124507;-64
2021/10/13 01:57:26;;;;;;;6.07;2.55;;;;;;;11.25;60.44;102257.31;4969213;28;124418;-64
2021/10/13 01:59:56;;;;;;;7.15;2.67;;;;;;;11.26;60.51;102253.72;4969420;28;119931;-64
2021/10/13 02:02:31;;;;;;;5.53;2.70;;;;;;;11.28;60.61;102251.91;4969059;28;119091;-64
2021/10/13 02:05:01;;;;;;;5.60;2.65;;;;;;;11.31;60.86;102246.53;4968861;28;124253;-64
2021/10/13 02:07:31;;;;;;;7.15;2.35;;;;;;;11.33;60.81;102247.34;4972275;28;124873;-64
2021/10/13 02:10:07;;;;;;;4.25;2.47;;;;;;;11.36;60.98;102244.66;4968876;28;119728;-64
2021/10/13 02:12:37;;;;;;;6.28;2.40;;;;;;;11.39;60.81;102244.53;4971736;28;118885;-64
2021/10/13 02:15:06;;;;;;;5.47;2.92;;;;;;;11.42;60.79;102239.16;4969956;28;124112;-64
2021/10/13 02:17:38;;;;;;;7.97;3.97;;;;;;;11.46;61.09;102246.13;4971908;28;123925;-64
2021/10/13 02:20:05;;;;;;;9.45;4.20;;;;;;;11.48;60.80;102265.53;4968826;28;119369;-64
2021/10/13 02:22:35;;;;;;;9.60;4.25;;;;;;;11.51;60.98;102280.53;4970398;28;118775;-64
2021/10/13 02:25:03;;;;;;;8.27;4.00;;;;;;;11.53;61.03;102283.09;4969863;28;126073;-64
2021/10/13 02:27:54;;;;;;;10.25;4.55;;;;;;;11.53;60.74;102273.38;4972764;28;124707;-64
2021/10/13 02:30:21;;;;;;;9.00;3.92;;;;;;;11.55;61.20;102281.31;4973734;28;118867;-64
2021/10/13 02:32:49;;;;;;;7.35;3.83;;;;;;;11.56;61.12;102281.25;4952405;28;119015;-64
2021/10/13 02:35:16;;;;;;;9.93;3.58;;;;;;;11.58;60.89;102275.91;4953052;28;122867;-64
2021/10/13 02:37:43;;;;;;;7.57;3.10;;;;;;;11.60;60.94;102274.09;4966673;28;123855;-64
2021/10/13 02:40:11;;;;;;;10.48;3.03;;;;;;;11.64;61.05;102281.03;4955242;28;119425;-64
2021/10/13 02:42:39;;;;;;;7.70;2.80;;;;;;;11.65;60.89;102277.50;4968933;28;120039;-64
2021/10/13 02:45:07;;;;;;;8.82;2.80;;;;;;;11.67;60.84;102275.66;4971032;28;124726;-64
2021/10/13 02:47:41;;;;;;;5.90;2.63;;;;;;;11.70;61.20;102275.59;4968869;28;124090;-64
2021/10/13 02:50:35;;;;;;;5.90;2.72;;;;;;;11.72;61.12;102273.78;4966121;28;119183;-64
2021/10/13 02:53:14;;;;;;;5.65;2.35;;;;;;;11.77;61.03;102271.88;4968568;28;119001;-64
2021/10/13 02:55:47;;;;;;;10.48;2.92;;;;;;;11.78;60.99;102278.91;4972113;28;124846;-64
2021/10/13 02:58:22;;;;;;;13.70;2.85;;;;;;;11.78;60.91;102278.91;4971358;28;124550;-64
2021/10/13 03:00:51;;;;;;;6.60;2.35;;;;;;;11.80;61.00;102266.47;4972149;28;119357;-64
2021/10/13 03:03:32;;;;;;;7.00;2.35;;;;;;;11.80;61.05;102277.06;4968656;28;119115;-64
2021/10/13 03:06:01;;;;;;;4.65;2.15;;;;;;;11.82;60.90;102285.88;4953119;28;123686;-64
2021/10/13 03:08:32;;;;;;;5.82;2.53;;;;;;;11.85;60.96;102283.13;4968528;28;123754;-64
2021/10/13 03:11:01;;;;;;;4.47;2.47;;;;;;;11.87;61.01;102278.66;4969519;28;119220;-65
2021/10/13 03:13:33;;;;;;;5.38;2.58;;;;;;;11.90;60.99;102276.88;4970885;28;118733;-65
2021/10/13 03:16:08;;;;;;;5.75;2.20;;;;;;;11.90;60.98;102284.81;4953218;28;122946;-64
2021/10/13 03:18:37;;;;;;;5.28;2.28;;;;;;;11.92;60.83;102285.66;4969982;28;123906;-64
2021/10/13 03:21:06;;;;;;;4.70;2.38;;;;;;;11.93;60.82;102287.41;4970802;28;119843;-64
2021/10/13 03:23:33;;;;;;;6.85;2.35;;;;;;;11.92;60.75;102291.81;4970387;28;118896;-64
2021/10/13 03:26:09;;;;;;;5.10;2.42;;;;;;;11.92;60.96;102294.47;4966264;28;124060;-63
2021/10/13 03:28:38;;;;;;;6.05;2.65;;;;;;;11.93;60.72;102292.72;4967562;28;124079;-64
2021/10/13 03:31:07;;;;;;;6.82;2.45;;;;;;;11.93;60.89;102300.69;4970115;28;120723;-64
2021/10/13 03:33:36;;;;;;;4.47;2.40;;;;;;;11.93;60.80;102303.34;4968006;28;119821;-64
2021/10/13 03:36:07;;;;;;;5.47;2.05;;;;;;;11.94;60.92;102310.38;4972220;28;123974;-64
2021/10/13 03:38:34;;;;;;;4.72;2.28;;;;;;;11.94;60.97;102305.06;4968992;28;124045;-64
2021/10/13 03:41:01;;;;;;;4.32;2.42;;;;;;;11.96;60.76;102303.22;4967681;28;119432;-64
2021/10/13 03:43:29;;;;;;;5.10;2.33;;;;;;;11.96;60.96;102313.84;4970293;28;119131;-64
2021/10/13 03:45:56;;;;;;;6.03;2.38;;;;;;;11.97;60.91;102315.63;4968367;28;124668;-64
2021/10/13 03:48:27;;;;;;;6.30;2.50;;;;;;;11.98;60.92;102314.69;4952938;28;123189;-64
2021/10/13 03:50:54;;;;;;;5.75;2.03;;;;;;;11.99;61.02;102319.09;4952644;28;118357;-64
2021/10/13 03:53:21;;;;;;;5.80;2.50;;;;;;;12.00;60.98;102312.88;4969614;28;118955;-64
2021/10/13 03:55:48;;;;;;;5.88;2.65;;;;;;;12.00;61.11;102310.22;4969542;28;123985;-64
2021/10/13 03:58:15;;;;;;;5.57;2.58;;;;;;;12.02;60.94;102313.72;4991869;22;123974;-67
2021/10/13 04:00:42;;;;;;;6.60;2.22;;;;;;;12.03;61.07;102320.75;4953997;28;119617;-67
2021/10/13 04:03:10;;;;;;;3.88;2.30;;;;;;;12.03;61.20;102320.75;4956958;28;118877;-67
2021/10/13 04:05:37;;;;;;;4.72;2.50;;;;;;;12.03;61.00;102324.25;4962313;28;123977;-65
2021/10/13 04:08:08;;;;;;;4.68;2.55;;;;;;;12.03;61.08;102318.09;4959944;28;123127;-66
2021/10/13 04:10:35;;;;;;;5.22;2.30;;;;;;;12.05;61.09;102318.91;4959880;28;119649;-67
2021/10/13 04:13:03;;;;;;;6.53;2.17;;;;;;;12.05;61.07;102318.91;4958039;28;118987;-66
2021/10/13 04:15:30;;;;;;;6.55;2.30;;;;;;;12.05;61.17;102318.91;4959700;28;124760;-66
2021/10/13 04:17:57;;;;;;;5.57;2.20;;;;;;;12.05;61.09;102308.28;4957659;28;123387;-67
2021/10/13 04:20:24;;;;;;;4.28;2.58;;;;;;;12.06;61.05;102320.69;4963181;28;119720;-67
2021/10/13 04:22:51;;;;;;;5.07;2.72;;;;;;;12.06;61.08;102326.00;4960861;28;119828;-68
2021/10/13 04:25:18;;;;;;;5.53;2.22;;;;;;;12.07;61.07;102327.72;4949256;28;122950;-68
2021/10/13 04:27:45;;;;;;;7.32;2.30;;;;;;;12.07;60.94;102333.03;4955983;28;123892;-69
2021/10/13 04:30:12;;;;;;;5.45;2.50;;;;;;;12.07;61.17;102322.41;4941657;28;119326;-68
2021/10/13 04:32:40;;;;;;;4.15;1.98;;;;;;;12.07;61.03;102327.72;4954947;28;119042;-68
2021/10/13 04:35:07;;;;;;;6.43;2.50;;;;;;;12.07;61.14;102327.72;4955942;28;123871;-67
2021/10/13 04:37:35;;;;;;;5.93;2.03;;;;;;;12.06;61.18;102331.28;4958996;28;123778;-68
2021/10/13 04:40:04;;;;;;;7.93;2.33;;;;;;;12.07;61.31;102322.41;4959442;28;119693;-67
2021/10/13 04:42:31;;;;;;;7.07;2.40;;;;;;;12.09;61.30;102320.56;4959165;28;119465;-67
2021/10/13 04:45:00;;;;;;;6.53;2.33;;;;;;;12.11;61.33;102324.09;4961047;28;124282;-67
2021/10/13 04:47:27;;;;;;;4.50;2.20;;;;;;;12.12;61.32;102331.13;4961734;28;123129;-67
2021/10/13 04:49:54;;;;;;;4.22;2.17;;;;;;;12.14;61.35;102323.97;4964495;28;119725;-68
2021/10/13 04:52:21;;;;;;;8.30;4.28;;;;;;;12.14;61.37;102316.00;4963710;28;118935;-67
2021/10/13 04:54:48;;;;;;;11.30;4.70;;;;;;;12.14;61.35;102323.97;4964606;28;123918;-67
2021/10/13 04:57:16;;;;;;;10.38;4.68;;;;;;;12.14;61.21;102323.97;4956650;28;123716;-67
2021/10/13 04:59:43;;;;;;;9.63;4.10;;;;;;;12.13;61.43;102321.34;4958041;28;119929;-67
2021/10/13 05:02:10;;;;;;;10.60;4.20;;;;;;;12.12;61.23;102331.13;4954241;28;119025;-66
2021/10/13 05:04:38;;;;;;;8.60;4.50;;;;;;;12.12;61.38;102332.91;4961599;28;124706;-67
2021/10/13 05:07:05;;;;;;;9.18;3.75;;;;;;;12.11;61.41;102329.41;4959550;28;123881;-66
2021/10/13 05:09:32;;;;;;;9.48;4.47;;;;;;;12.11;61.56;102329.41;4961215;28;120348;-67
2021/10/13 05:11:59;;;;;;;11.27;5.30;;;;;;;12.12;61.43;102333.78;4960920;28;119831;-67
2021/10/13 05:14:27;;;;;;;15.02;5.95;;;;;;;12.12;61.56;102331.13;4940958;28;124508;-67
2021/10/13 05:16:54;;;;;;;11.07;5.85;;;;;;;12.10;61.46;102338.25;4962167;28;124758;-67
2021/10/13 05:19:21;;;;;;;13.27;6.18;;;;;;;12.09;61.52;102331.19;4958253;28;120091;-67
2021/10/13 05:21:48;;;;;;;13.32;6.68;;;;;;;12.06;61.31;102341.91;4960852;28;119079;-67
2021/10/13 05:24:15;;;;;;;13.82;6.75;;;;;;;12.04;61.32;102333.13;4963406;28;124516;-67
2021/10/13 05:26:42;;;;;;;13.57;6.53;;;;;;;12.02;61.33;102335.81;4966791;28;124229;-68
2021/10/13 05:29:09;;;;;;;18.40;7.60;;;;;;;12.02;61.19;102341.13;4959133;28;119178;-67
2021/10/13 05:31:37;;;;;;;17.63;8.00;;;;;;;12.00;61.27;102342.09;4951568;28;119023;-67
2021/10/13 05:34:04;;;;;;;21.77;9.93;;;;;;;11.99;61.37;102340.34;4946193;28;122973;-67
2021/10/13 05:36:31;;;;;;;23.17;8.68;;;;;;;11.97;61.27;102344.81;4962357;28;123768;-67
2021/10/13 05:38:58;;;;;;;16.80;7.97;;;;;;;11.95;61.20;102339.53;4962049;28;119244;-67
2021/10/13 05:41:25;;;;;;;19.10;8.48;;;;;;;11.93;61.39;102338.72;4945588;28;117964;-67
2021/10/13 05:43:54;;;;;;;18.85;8.07;;;;;;;11.91;61.19;102339.69;4960010;28;123829;-67
2021/10/13 05:46:21;;;;;;;15.95;8.20;;;;;;;11.90;61.25;102345.88;4956638;28;123792;-67
2021/10/13 05:48:48;;;;;;;20.10;7.70;;;;;;;11.88;61.39;102343.25;4958846;28;119182;-67
2021/10/13 05:51:16;;;;;;;16.48;7.78;;;;;;;11.87;61.42;102350.34;4959391;28;118869;-67
2021/10/13 05:53:43;;;;;;;13.57;6.93;;;;;;;11.87;61.21;102353.00;4955692;28;124069;-68
2021/10/13 05:56:10;;;;;;;15.70;7.25;;;;;;;11.87;61.57;102363.63;4961265;28;123772;-67
2021/10/13 05:58:39;;;;;;;17.45;7.95;;;;;;;11.88;61.26;102362.72;4952440;28;120355;-68
2021/10/13 06:01:06;;;;;;;18.35;7.57;;;;;;;11.88;61.49;102381.28;4956395;28;120064;-67
2021/10/13 06:03:33;;;;;;;15.23;7.70;;;;;;;11.88;61.13;102372.44;4953021;28;124673;-67
2021/10/13 06:06:01;;;;;;;19.52;7.63;;;;;;;11.88;61.59;102381.28;4960697;28;123896;-68
2021/10/13 06:08:28;;;;;;;16.05;7.75;;;;;;;11.90;61.27;102383.06;4955332;28;119154;-67
2021/10/13 06:10:55;;;;;;;15.15;7.95;;;;;;;11.90;61.61;102389.22;4955054;28;119035;-67
2021/10/13 06:13:22;;;;;;;14.52;6.45;;;;;;;11.92;61.43;102389.19;4955742;28;124455;-67
2021/10/13 06:15:51;;;;;;;12.20;6.25;;;;;;;11.91;61.03;102395.44;4961241;28;124166;-67
2021/10/13 06:18:19;;;;;;;11.52;5.60;;;;;;;11.91;61.43;102390.13;4957631;28;119708;-66
2021/10/13 06:20:46;;;;;;;12.10;5.40;;;;;;;11.91;61.42;102395.44;4967552;28;119424;-66
2021/10/13 06:23:13;;;;;;;10.57;4.43;;;;;;;11.90;61.55;102399.00;4950572;28;125124;-67
2021/10/13 06:25:42;;;;;;;9.98;4.40;;;;;;;11.90;61.42;102399.00;4964774;28;124846;-67
2021/10/13 06:28:09;;;;;;;11.23;4.15;;;;;;;11.90;61.62;102404.28;4937062;28;119248;-67
2021/10/13 06:30:42;;;;;;;8.80;3.60;;;;;;;11.91;61.43;102411.38;4953650;28;119749;-66
2021/10/13 06:33:09;;;;;;;11.40;3.85;;;;;;;11.92;61.71;102413.09;4954367;28;124303;-66
2021/10/13 06:35:37;;;;;;;7.53;4.00;;;;;;;11.92;61.76;102407.78;4954561;28;123810;-66
2021/10/13 06:38:04;;;;;;;9.60;3.92;;;;;;;11.93;61.75;102405.09;4952754;28;119259;-66
2021/10/13 06:40:32;;;;;;;7.45;3.40;;;;;;;11.96;61.73;102413.00;4941593;28;117756;-66
2021/10/13 06:43:01;;;;;;;9.40;3.50;;;;;;;11.99;61.76;102420.84;4967520;28;123866;-67
2021/10/13 06:45:29;;;;;;;7.22;3.05;;;;;;;12.01;61.69;102412.84;4947026;28;123669;-66
2021/10/13 06:47:56;;;;;;;5.03;2.88;;;;;;;12.04;61.58;102412.78;4965842;28;120097;-66
2021/10/13 06:50:23;;;;;;;9.07;3.83;;;;;;;12.07;61.83;102418.00;4953772;28;118831;-66
2021/10/13 06:52:50;;;;;;;7.32;2.88;;;;;;;12.10;61.83;102422.38;4964517;28;124118;-66
2021/10/13 06:55:17;;;;;;;9.60;3.00;;;;;;;12.13;61.90;102417.88;4949266;28;124753;-66
2021/10/13 06:57:44;;;;;;;5.57;2.70;;;;;;;12.18;61.88;102426.56;4966304;28;119881;-68
2021/10/13 07:00:12;;;;;;;6.35;2.42;;;;;;;12.23;62.09;102424.66;4968113;28;119679;-66
2021/10/13 07:02:39;;;;;;;6.90;2.60;;;;;;;12.27;61.85;102421.00;4958808;28;123909;-66
2021/10/13 07:05:07;;;;;;;5.45;2.90;;;;;;;12.33;62.03;102424.41;4968989;28;123746;-66
2021/10/13 07:07:44;;;;;;;6.85;2.88;;;;;;;12.37;62.23;102426.09;4960360;28;119379;-66
2021/10/13 07:10:12;;;;;;;7.50;3.00;;;;;;;12.43;62.13;102431.22;4971618;28;119452;-66
2021/10/13 07:12:39;;;;;;;7.85;3.60;;;;;;;12.47;62.29;102432.91;4956696;28;124235;-66
2021/10/13 07:15:08;;;;;;;5.78;3.03;;;;;;;12.52;62.22;102436.28;4961951;28;123951;-66
2021/10/13 07:17:35;;;;;;;8.55;3.25;;;;;;;12.58;62.26;102436.13;4962594;28;118924;-66
2021/10/13 07:20:05;;;;;;;10.80;3.03;;;;;;;12.63;62.30;102434.19;4959312;28;119315;-66
2021/10/13 07:22:33;;;;;;;7.05;2.30;;;;;;;12.69;62.17;102437.59;4954314;28;124865;-66
2021/10/13 07:25:02;;;;;;;5.30;2.40;;;;;;;12.76;62.37;102439.19;4955231;28;124020;-66
2021/10/13 07:27:29;;;;;;;8.10;2.30;;;;;;;12.81;62.23;102437.28;4939208;28;119216;-66
2021/10/13 07:29:58;;;;;;;5.53;2.20;;;;;;;12.87;62.33;102441.53;4959509;28;119745;-67
2021/10/13 07:32:27;;;;;;;6.35;2.35;;;;;;;12.93;62.34;102436.91;4962533;28;124216;-66
2021/10/13 07:35:14;;;;;;;6.22;2.20;;;;;;;13.01;62.21;102434.00;4934792;28;122824;-65
2021/10/13 07:37:41;;;;;;;5.22;2.38;;;;;;;13.08;62.45;102429.41;4957889;28;120177;-65
2021/10/13 07:40:09;;;;;;;8.82;2.20;;;;;;;13.14;62.51;102434.53;4949825;28;120399;-65
2021/10/13 07:42:38;;;;;;;5.75;2.20;;;;;;;13.21;62.48;102436.09;4941879;28;123013;-66
2021/10/13 07:45:06;;;;;;;8.65;2.70;;;;;;;13.29;62.56;102434.03;4949881;28;124374;-66
2021/10/13 07:47:34;;;;;;;8.73;2.80;;;;;;;13.36;62.53;102437.44;4950920;28;119352;-65
2021/10/13 07:50:01;;;;;;;7.85;2.65;;;;;;;13.46;62.62;102440.69;4938626;28;118102;-65
2021/10/13 07:52:28;;;;;;;6.97;3.00;;;;;;;13.54;62.46;102433.31;4952720;28;124495;-65
2021/10/13 07:54:55;;;;;;;8.75;2.90;;;;;;;13.62;62.33;102436.63;4954082;28;124415;-65
2021/10/13 07:57:24;;;;;;;5.47;3.22;;;;;;;13.69;62.36;102438.13;4961160;28;119616;-65
2021/10/13 07:59:51;;;;;;;6.35;3.22;;;;;;;13.75;62.41;102440.63;4963235;28;119261;-65
2021/10/13 08:02:18;;;;;;;5.75;2.92;;;;;;;13.83;62.54;102443.88;4953751;28;124828;-65
2021/10/13 08:04:46;;;;;;;5.40;2.40;;;;;;;13.92;62.53;102441.81;4951935;28;123712;-65
2021/10/13 08:07:17;;;;;;;5.65;2.50;;;;;;;14.02;62.58;102451.28;4958586;28;119359;-65
2021/10/13 08:09:45;;;;;;;5.50;2.13;;;;;;;14.11;62.59;102445.63;4966482;28;119310;-65
2021/10/13 08:12:12;;;;;;;4.20;1.92;;;;;;;14.21;62.43;102440.84;4956026;28;123787;-65
2021/10/13 08:14:40;;;;;;;6.60;2.13;;;;;;;14.31;62.48;102452.06;4933912;28;122778;-65
2021/10/13 08:17:09;;;;;;;6.90;1.98;;;;;;;14.39;62.23;102455.31;4953117;28;119147;-66
2021/10/13 08:19:37;;;;;;;5.90;1.98;;;;;;;14.46;62.21;102462.19;4950703;28;119605;-65
2021/10/13 08:22:04;;;;;;;4.97;1.67;;;;;;;14.52;62.08;102459.31;4959425;28;125037;-67
2021/10/13 08:24:33;;;;;;;4.55;1.85;;;;;;;14.58;62.04;102451.13;4950236;28;124106;-65
2021/10/13 08:27:02;;;;;;;7.72;1.98;;;;;;;14.63;61.96;102458.06;4969995;28;120057;-66
2021/10/13 08:29:30;;;;;;;4.97;1.90;;;;;;;14.70;61.95;102460.47;4968569;28;119907;-66
2021/10/13 08:31:57;;;;;;;5.47;1.77;;;;;;;14.77;61.78;102461.13;4969844;28;123985;-65
2021/10/13 08:34:25;;;;;;;4.90;1.70;;;;;;;14.81;61.65;102468.06;4969631;28;124703;-66
2021/10/13 08:36:52;;;;;;;3.40;1.90;;;;;;;14.86;61.70;102471.47;4970306;28;119708;-67
2021/10/13 08:39:20;;;;;;;3.17;1.65;;;;;;;14.91;61.43;102474.81;4967892;28;118852;-66
2021/10/13 08:41:47;;;;;;;4.50;1.83;;;;;;;14.96;61.52;102477.31;4967974;28;124066;-65
2021/10/13 08:44:14;;;;;;;6.20;1.65;;;;;;;15.03;61.37;102472.59;4969891;28;124346;-65
2021/10/13 08:46:43;;;;;;;4.85;2.30;;;;;;;15.07;61.31;102479.56;4969036;28;120074;-65
2021/10/13 08:49:11;;;;;;;6.90;1.90;;;;;;;15.09;61.25;102477.72;4966600;28;119115;-65
2021/10/13 08:51:40;;;;;;;4.55;1.70;;;;;;;15.12;61.17;102477.59;4966429;28;124431;-65
2021/10/13 08:54:13;;;;;;;6.63;2.10;;;;;;;15.14;60.93;102470.41;4968561;28;124722;-65
2021/10/13 08:56:41;;;;;;;5.28;1.63;;;;;;;15.18;61.05;102472.00;4969190;28;119622;-65
2021/10/13 08:59:08;;;;;;;5.40;1.77;;;;;;;15.26;61.16;102479.75;4968875;28;119679;-64
2021/10/13 09:01:48;;;;;;;4.15;2.05;;;;;;;15.31;61.20;102484.00;4936923;28;123110;-64
2021/10/13 09:04:15;;;;;;;3.40;1.60;;;;;;;15.36;61.01;102481.13;4955002;28;123850;-67
2021/10/13 09:06:42;;;;;;;4.65;1.80;;;;;;;15.38;60.86;102480.13;4960233;28;119504;-64
2021/10/13 09:09:10;;;;;;;5.97;2.05;;;;;;;15.42;60.76;102485.34;4949207;28;118079;-64
2021/10/13 09:11:42;;;;;;;4.68;1.90;;;;;;;15.44;60.75;102486.16;4969178;28;124729;-64
2021/10/13 09:14:12;;;;;;;5.78;1.90;;;;;;;15.46;60.69;102486.97;4966509;28;124605;-64
2021/10/13 09:17:16;;;;;;;6.55;1.77;;;;;;;15.47;60.76;102483.38;4968408;28;120663;-64
2021/10/13 09:19:52;;;;;;;4.85;1.70;;;;;;;15.50;61.00;102483.25;4952374;28;121892;-64
2021/10/13 09:22:19;;;;;;;3.55;1.60;;;;;;;15.52;60.58;102476.03;4964436;28;124173;-65
2021/10/13 09:24:51;;;;;;;6.35;2.00;;;;;;;15.56;60.54;102488.38;4951330;28;123477;-65
2021/10/13 09:27:24;;;;;;;5.63;2.20;;;;;;;15.59;60.46;102480.22;4952845;28;119154;-65
2021/10/13 09:30:07;;;;;;;6.32;1.80;;;;;;;15.62;60.52;102477.44;4955988;28;119246;-65
2021/10/13 09:32:42;;;;;;;4.78;1.60;;;;;;;15.68;60.54;102487.00;4950098;28;124870;-65
2021/10/13 09:35:09;;;;;;;6.75;1.90;;;;;;;15.74;60.44;102490.31;4953653;28;124501;-65
2021/10/13 09:37:49;;;;;;;3.63;1.58;;;;;;;15.81;60.43;102487.41;4961800;28;119939;-65
2021/10/13 09:40:27;;;;;;;4.18;1.65;;;;;;;15.88;60.37;102484.41;4938861;28;118821;-65
2021/10/13 09:42:58;;;;;;;4.97;1.73;;;;;;;15.97;60.50;102488.50;4959133;28;124697;-65
2021/10/13 09:45:28;;;;;;;4.40;1.60;;;;;;;16.08;60.49;102491.59;4957437;28;123771;-65
2021/10/13 09:48:04;;;;;;;3.75;1.60;;;;;;;16.21;60.29;102491.09;4963368;28;119298;-65
2021/10/13 09:50:47;;;;;;;3.83;1.55;;;;;;;16.34;60.14;102492.31;4957674;28;120219;-65
2021/10/13 09:53:28;;;;;;;4.75;1.60;;;;;;;16.46;59.94;102491.78;4963596;28;123914;-65
2021/10/13 09:55:56;;;;;;;6.60;1.83;;;;;;;16.59;59.80;102491.25;4972408;28;124300;-65
2021/10/13 09:58:31;;;;;;;6.43;2.33;;;;;;;16.70;59.76;102483.59;4993610;22;119283;-73
2021/10/13 10:01:17;;;;;;;5.25;1.90;;;;;;;16.83;59.72;102479.47;4952850;28;117930;-72
2021/10/13 10:03:46;;;;;;;4.20;1.70;;;;;;;16.93;59.40;102486.16;4955268;28;123849;-72
2021/10/13 10:06:15;;;;;;;6.57;2.30;;;;;;;17.04;59.30;102493.69;4954794;28;124230;-73
2021/10/13 10:08:54;;;;;;;4.72;1.92;;;;;;;17.12;58.97;102501.34;4951254;28;120418;-72
2021/10/13 10:11:33;;;;;;;4.68;1.77;;;;;;;17.18;58.76;102502.88;4952842;28;120602;-73
2021/10/13 10:14:03;;;;;;;5.38;1.67;;;;;;;17.20;58.28;102501.88;4959965;28;123951;-72
2021/10/13 10:16:32;;;;;;;5.43;1.35;;;;;;;17.21;58.04;102505.41;4961859;28;123929;-72
2021/10/13 10:19:21;;;;;;;3.45;1.45;;;;;;;17.22;57.82;102508.03;4963422;28;119434;-72
2021/10/13 10:21:56;;;;;;;3.75;1.40;;;;;;;17.25;57.69;102517.72;4959850;28;120104;-72
2021/10/13 10:24:35;;;;;;;5.30;1.50;;;;;;;17.24;57.66;102511.50;4956051;28;124358;-72
2021/10/13 10:27:24;;;;;;;5.47;1.67;;;;;;;17.26;57.58;102514.97;4940171;28;122856;-73
2021/10/13 10:30:09;;;;;;;4.13;1.50;;;;;;;17.27;57.38;102511.38;4954102;28;118706;-72
2021/10/13 10:32:38;;;;;;;3.58;1.30;;;;;;;17.29;57.30;102519.31;4953036;28;119078;-72
2021/10/13 10:35:05;;;;;;;4.40;1.33;;;;;;;17.30;57.30;102524.59;4955086;28;124060;-72
2021/10/13 10:37:41;;;;;;;3.38;1.45;;;;;;;17.32;57.23;102519.19;4958098;28;123998;-72
2021/10/13 10:40:31;;;;;;;2.65;1.40;;;;;;;17.34;57.17;102516.44;4955948;28;119174;-74
2021/10/13 10:43:18;;;;;;;4.38;1.40;;;;;;;17.40;57.07;102526.84;4951355;28;118966;-74
2021/10/13 10:45:57;;;;;;;3.25;1.20;;;;;;;17.44;56.84;102528.44;4952381;28;124025;-72
2021/10/13 10:48:26;;;;;;;4.22;1.13;;;;;;;17.46;56.34;102531.91;4965585;28;123883;-72
2021/10/13 10:50:53;;;;;;;5.90;1.48;;;;;;;17.45;56.28;102520.34;4969355;28;119742;-72
2021/10/13 10:53:22;;;;;;;3.28;1.38;;;;;;;17.46;56.16;102523.88;4946190;28;118044;-72
2021/10/13 10:55:50;;;;;;;4.78;1.40;;;;;;;17.47;56.35;102522.94;4944275;28;124700;-72
2021/10/13 10:58:28;;;;;;;5.90;1.50;;;;;;;17.52;56.18;102523.63;4957360;28;124002;-74
2021/10/13 11:01:15;;;;;;;2.97;1.33;;;;;;;17.56;56.37;102517.16;4939901;28;119310;-73
2021/10/13 11:03:43;;;;;;;3.55;0.90;;;;;;;17.61;56.44;102519.59;4962980;28;119777;-73
2021/10/13 11:06:29;;;;;;;3.13;1.13;;;;;;;17.66;56.43;102523.81;4963074;28;124276;-73
2021/10/13 11:09:05;;;;;;;3.58;1.10;;;;;;;17.73;56.16;102528.88;4953979;28;123095;-73
2021/10/13 11:11:38;;;;;;;4.13;1.40;;;;;;;17.77;56.00;102525.13;4949287;28;119658;-73
2021/10/13 11:14:12;;;;;;;3.47;1.08;;;;;;;17.78;55.78;102526.84;4953264;28;119139;-74
2021/10/13 11:16:47;;;;;;;2.35;1.10;;;;;;;17.80;55.81;102516.91;4950248;28;122814;-73
2021/10/13 11:19:21;;;;;;;2.60;1.13;;;;;;;17.82;55.56;102523.06;4961014;28;123772;-73
2021/10/13 11:22:03;;;;;;;5.35;1.20;;;;;;;17.83;55.59;102519.44;4959723;28;120165;-73
2021/10/13 11:24:37;;;;;;;3.28;1.20;;;;;;;17.84;55.53;102526.56;4961203;28;118915;-73
2021/10/13 11:27:06;;;;;;;2.50;1.20;;;;;;;17.83;55.48;102519.44;4945588;28;123306;-73
2021/10/13 11:29:35;;;;;;;5.32;1.55;;;;;;;17.84;55.22;102523.88;4958256;28;123518;-73
2021/10/13 11:32:04;;;;;;;6.47;1.38;;;;;;;17.84;55.31;102518.53;4952584;28;119056;-73